Aviation Digital Data Service (ADDS)

Output produced by METARs form (0047 UTC 21 July 2017)
found at http://aviationweather.gov/adds/metars/
 
KORH 202321Z 2100/2124 27005KT P6SM BKN050 
     FM210300 26006KT P6SM BKN060 
     FM212100 28011G18KT P6SM FEW250